Meteo Giornale » Osservazioni meteo Stati Uniti (USA) » Boscobel
ore: 15:53 - Osservazioni Meteo Boscobel
Lat. 43° 9' N Lon. 90° 40' W Alt. 205 metri s.l.m.
29 °C
Sereno
Temp. 24 Ore
18 °C
31 °C
Nord
11.1 Km/h
Dew point 23 °C
Umidità 70 %
Visibilità 10 Km
Il sole sorge alle ore 06:26
Il sole tramonta alle ore 19:39
| Data e Ora | Cielo e Fenomeni | T °C | DP °C | Um. % | Pres. hPa | Vis. km | Vento km/h | |
|---|---|---|---|---|---|---|---|---|
| Oggi h: 15:53 | Sereno | 29 | 23 | 70 | 1011 | 10 | N 11.1 | |
| Oggi h: 14:53 | Sereno | 31 | 23 | 62 | 1011 | 10 | S 11.1 | |
| Oggi h: 13:53 | Sereno | 31 | 23 | 62 | 1011 | 10 | N 11.1 | |
| Oggi h: 12:53 | Sereno | 29 | 22 | 66 | 1011 | 10 | O 9.3 | |
| Oggi h: 11:53 | Sereno | 29 | 21 | 62 | 1012 | 10 | O 13 | |
| Oggi h: 10:53 | Sereno | 28 | 21 | 65 | 1011 | 10 | O/SO 13 | |
| Oggi h: 09:53 | Sereno | 27 | 21 | 69 | 1011 | 10 | O/SO 11.1 | |
| Oggi h: 08:53 | Sereno | 26 | 21 | 73 | 1011 | 10 | N 9.3 | |
| Oggi h: 07:53 | Sereno | 22 | 21 | 94 | 1010 | 10 | N 0 | |
| Oggi h: 06:53 | Foschia | 19 | 19 | 100 | 1010 | 8 | N 0 | |
| Oggi h: 06:17 | Foschia | 18 | 18 | 100 | 1010 | 5 | N 0 | |
| Oggi h: 06:04 | Foschia | 19 | 19 | 100 | 1010 | 5 | N 0 | |
| Oggi h: 05:53 | Foschia | 19 | 19 | 100 | 1010 | 8 | N 0 | |
| Oggi h: 04:53 | Sereno | 20 | 19 | 93 | 1010 | 10 | N 0 | |
| Oggi h: 03:53 | Poco Nuvoloso | 22 | 20 | 88 | 1010 | 10 | N 5.5 | |
| Oggi h: 02:53 | Coperto | 23 | 20 | 83 | 1010 | 10 | N 0 | |
| Oggi h: 01:53 | Molto Nuvoloso | 21 | 20 | 94 | 1011 | 14 | N 0 | |
| Oggi h: 00:53 | Coperto | 21 | 20 | 94 | 1012 | 14 | N 0 | |
| Ieri h: 23:53 | Molto Nuvoloso | 21 | 20 | 94 | 1012 | 13 | N/NE 7.4 | |
| Ieri h: 22:53 | Sereno | 21 | 20 | 94 | 1012 | 10 | N/NE 7.4 | |
| Ieri h: 21:53 | Sereno | 21 | 20 | 94 | 1013 | 11 | E/SE 7.4 | |
| Ieri h: 20:53 | Sereno | 22 | 20 | 88 | 1012 | 10 | N 0 | |
| Ieri h: 19:53 | Sereno | 22 | 21 | 94 | 1012 | 10 | SO 9.3 | |
| Ieri h: 18:53 | Pioggia | 22 | 21 | 94 | 1012 | 13 | N 0 | |
| Ieri h: 18:45 | Temporale Foschia | 22 | 21 | 94 | 1012 | 10 | S/SE 7.4 | |
| Ieri h: 18:37 | Temporale Foschia | 22 | 21 | 94 | 1012 | 2 | N 0 | |
| Ieri h: 18:33 | Temporale nelle vicinanze Pioggia | 22 | 21 | 94 | 1012 | 2 | N 5.5 | |
| Ieri h: 18:28 | Pioggia Foschia | 22 | 21 | 94 | 1011 | 2 | N 0 | |
| Ieri h: 18:17 | Temporale nelle vicinanze Pioggia | 23 | 21 | 88 | 1011 | 8 | N 5.5 | |
| Ieri h: 17:53 | Pioggia | 23 | 21 | 88 | 1011 | 10 | N 9.3 | |
| Ieri h: 16:53 | Sereno | 24 | 21 | 83 | 1011 | 10 | N 7.4 | |



